• Join FlightAware (Why Join?)
  • Login
  • US Flag 
01:39AM EDT


 

Airport Tracker/Info


-or-


 

Live Flight TrackerFlight Track Log ✈ SWA2624 ✈ 03-May-2013 ✈ KABQ - KLAS

Flight Track Log - Related Links

Times and Time Zones

All times are in EDT time to prevent confusion due to time zone crossing. See the SWA2624 flight status page for this flight to view local times or setup timezone preferences in your user account.

Time Position Orientation Groundspeed Altitude Reporting Facility
EDT Latitude Longitude Course Direction KTS MPH feet Rate Location/Type
11:35PM 35.0431 -106.5767 129° Southeast 169 194 6,200  Level Albuquerque Center
11:36PM 35.0297 -106.5564 129° Southeast 182 209 7,000 1,680 Climbing Albuquerque Center
11:37PM 34.9644 -106.5808 197° South 226 260 9,000 2,100 Climbing Albuquerque Center
11:38PM 34.9656 -106.6728 271° West 260 299 11,300 2,340 Climbing Albuquerque Center
11:39PM 34.9800 -106.7883 279° West 325 374 13,900 2,700 Climbing Albuquerque Center
11:40PM 34.9936 -106.9128 278° West 356 410 16,900 2,700 Climbing Albuquerque Center
11:41PM 35.0131 -107.0503 280° West 388 447 19,400 2,580 Climbing Albuquerque Center
11:42PM 35.0286 -107.1856 278° West 412 474 22,200 2,400 Climbing Albuquerque Center
11:43PM 35.0450 -107.3286 278° West 424 488 24,400 1,920 Climbing Albuquerque Center
11:44PM 35.0619 -107.4756 278° West 431 496 26,200 2,040 Climbing Albuquerque Center
11:45PM 35.0794 -107.6250 278° West 442 509 28,600 2,220 Climbing Albuquerque Center
11:46PM 35.0969 -107.7694 278° West 436 502 30,800 2,040 Climbing Albuquerque Center
11:47PM 35.1150 -107.9269 278° West 430 495 32,800 1,860 Climbing Albuquerque Center
11:48PM 35.1306 -108.0628 278° West 425 489 34,600 1,680 Climbing Albuquerque Center
11:49PM 35.1453 -108.1928 278° West 412 474 36,300 1,800 Climbing Albuquerque Center
11:50PM 35.1625 -108.3403 278° West 397 457 38,400 1,500 Climbing Albuquerque Center
11:51PM 35.1767 -108.4650 278° West 389 448 39,400 780 Climbing Albuquerque Center
11:52PM 35.1922 -108.6097 278° West 385 443 40,000 240 Climbing Albuquerque Center
11:53PM 35.2061 -108.7342 278° West 385 443 40,000  Level Albuquerque Center
11:54PM 35.2192 -108.8619 277° West 389 448 40,000  Level Albuquerque Center
11:55PM 35.2361 -109.0128 278° West 397 457 40,000  Level Albuquerque Center
11:56PM 35.2500 -109.1408 278° West 398 458 40,000  Level Albuquerque Center
11:57PM 35.2633 -109.2683 277° West 395 455 40,000  Level Albuquerque Center
11:58PM 35.2783 -109.4175 277° West 394 453 40,000  Level Albuquerque Center
11:59PM 35.2900 -109.5433 277° West 391 450 40,000  Level Albuquerque Center
12:00AM 35.3031 -109.6719 277° West 394 453 40,000  Level Albuquerque Center
12:01AM 35.3183 -109.8200 277° West 393 452 40,000  Level Albuquerque Center
12:02AM 35.3319 -109.9497 277° West 398 458 40,000  Level Albuquerque Center
12:03AM 35.3431 -110.0744 276° West 390 449 40,000  Level Albuquerque Center
12:04AM 35.3539 -110.2217 275° West 388 447 40,000  Level Albuquerque Center
12:05AM 35.3658 -110.3472 277° West 388 447 40,000  Level Albuquerque Center
12:06AM 35.3803 -110.4969 277° West 393 452 40,000  Level Albuquerque Center
12:07AM 35.3919 -110.6278 276° West 400 460 40,000  Level Albuquerque Center
12:08AM 35.4025 -110.7594 276° West 403 464 40,000  Level Albuquerque Center
12:09AM 35.4172 -110.9122 277° West 405 466 40,000  Level Albuquerque Center
12:10AM 35.4297 -111.0439 277° West 406 467 40,000  Level Albuquerque Center
12:11AM 35.4403 -111.1750 276° West 405 466 40,000  Level Albuquerque Center
12:12AM 35.4539 -111.3286 276° West 405 466 40,000 -1,140 Level Albuquerque Center
12:13AM 35.4667 -111.4653 277° West 406 467 37,800 -2,520 Descending Albuquerque Center
12:14AM 35.4769 -111.6011 275° West 404 465 34,900 -3,120 Descending Albuquerque Center
12:15AM 35.4892 -111.7408 276° West 411 473 31,500 -2,460 Descending Albuquerque Center
12:16AM 35.5006 -111.8861 276° West 424 488 30,000 -780 Descending Albuquerque Center
12:17AM 35.5131 -112.0342 276° West 435 501 30,000  Level Albuquerque Center
12:18AM 35.5242 -112.1789 275° West 432 497 30,000  Level Albuquerque Center
12:19AM 35.5356 -112.3264 275° West 435 501 30,000  Level Albuquerque Center
12:20AM 35.5408 -112.3850 276° West 435 501 30,000  Level Los Angeles Center
12:21AM 35.5514 -112.5322 275° West 436 502 30,000  Level Los Angeles Center
12:22AM 35.5658 -112.7019 276° West 434 499 30,000  Level Los Angeles Center
12:23AM 35.5761 -112.8511 275° West 438 504 30,000  Level Los Angeles Center
12:24AM 35.5881 -113.0069 275° West 430 495 30,000  Level Los Angeles Center
12:25AM 35.5981 -113.1561 275° West 435 501 30,000  Level Los Angeles Center
12:26AM 35.6072 -113.2911 275° West 442 509 30,000 -420 Level Los Angeles Center
12:27AM 35.6172 -113.4358 275° West 434 499 29,200 -2,220 Descending Los Angeles Center
12:28AM 35.6331 -113.6094 276° West 432 497 25,500 -3,360 Descending Los Angeles Center
12:29AM 35.6544 -113.7525 280° West 430 495 22,400 -2,880 Descending Los Angeles Center
12:30AM 35.6733 -113.8881 280° West 409 471 19,700 -2,640 Descending Los Angeles Center
12:31AM 35.6917 -114.0194 280° West 393 452 17,100 -2,520 Descending Los Angeles Center
12:32AM 35.7097 -114.1439 280° West 375 432 14,600 -2,280 Descending Los Angeles Center
12:33AM 35.7297 -114.2689 281° West 367 422 12,700 -1,440 Descending Los Angeles Center
12:34AM 35.7844 -114.3672 304° West 361 415 11,800 -1,020 Descending Los Angeles Center
12:35AM 35.8658 -114.4697 314° West 363 418 10,600 -900 Descending Los Angeles Center
12:36AM 35.9258 -114.5439 315° West 330 380 10,000 -720 Descending Los Angeles Center
12:37AM 35.9814 -114.6128 315° West 287 330 9,200 -960 Descending Los Angeles Center
12:38AM 36.0167 -114.6983 297° West 279 321 8,100 -960 Descending Los Angeles Center
12:39AM 36.0442 -114.7789 293° West 265 305 7,300 -840 Descending Los Angeles Center
12:40AM 36.0706 -114.8531 294° West 251 289 6,400 -960 Descending Los Angeles Center
12:41AM 36.0744 -114.9297 274° West 236 272 5,400 -1,380 Descending Los Angeles Center
12:42AM 36.0739 -115.0092 270° West 195 224 3,700 -1,200 Descending Los Angeles Center
12:43AM 36.0742 -115.0661 270° West 186 214 3,000 -720 Descending Los Angeles Center
12:44AM 36.0742 -115.1125 270° West 156 180 2,300 -720 Descending Los Angeles Center
12:46AM 36.0667 -115.1500 270° West  Level FlightAware Approximate
12:53AM 36.0801 -115.1523 270° West  Level Estimated